createdAt,value
2023-05-13T00:02:12.843Z,9.55
2023-05-13T00:04:48.216Z,6.35
2023-05-13T00:07:16.567Z,7.88
2023-05-13T00:09:44.748Z,8.88
2023-05-13T00:12:16.916Z,11.23
2023-05-13T00:14:45.207Z,8.00
2023-05-13T00:17:14.884Z,8.68
2023-05-13T00:19:43.194Z,9.32
2023-05-13T00:22:11.460Z,10.23
2023-05-13T00:24:39.707Z,8.18
2023-05-13T00:27:08.354Z,13.82
2023-05-13T00:29:36.801Z,9.02
2023-05-13T00:32:06.078Z,7.22
2023-05-13T00:34:35.712Z,9.63
2023-05-13T00:37:06.434Z,7.00
2023-05-13T00:39:34.684Z,9.85
2023-05-13T00:42:04.413Z,8.05
2023-05-13T00:44:32.775Z,9.48
2023-05-13T00:47:01.301Z,8.80
2023-05-13T00:49:29.792Z,9.10
2023-05-13T00:51:59.525Z,9.38
2023-05-13T00:54:29.326Z,8.45
2023-05-13T00:56:59.417Z,8.48
2023-05-13T00:59:30.563Z,7.40
2023-05-13T01:02:08.268Z,8.20
2023-05-13T01:04:45.392Z,10.57
2023-05-13T01:07:24.598Z,11.27
2023-05-13T01:10:02.468Z,7.63
2023-05-13T01:12:33.924Z,12.23
2023-05-13T01:15:06.951Z,9.43
2023-05-13T01:17:48.354Z,8.68
2023-05-13T01:20:19.586Z,11.55
2023-05-13T01:22:49.716Z,7.60
2023-05-13T01:25:18.312Z,8.68
2023-05-13T01:27:47.199Z,8.60
2023-05-13T01:30:18.624Z,10.10
2023-05-13T01:32:47.360Z,8.68
2023-05-13T01:35:18.527Z,11.05
2023-05-13T01:37:50.160Z,5.95
2023-05-13T01:40:31.868Z,6.68
2023-05-13T01:43:05.616Z,9.05
2023-05-13T01:45:34.778Z,8.82
2023-05-13T01:48:03.475Z,9.32
2023-05-13T01:50:42.040Z,7.82
2023-05-13T01:53:12.374Z,8.13
2023-05-13T01:55:40.752Z,9.82
2023-05-13T01:58:09.788Z,12.68
2023-05-13T02:00:38.197Z,8.13
2023-05-13T02:03:06.647Z,9.13
2023-05-13T02:05:35.000Z,7.45
2023-05-13T02:08:08.911Z,13.13
2023-05-13T02:10:40.822Z,8.73
2023-05-13T02:13:09.220Z,11.30
2023-05-13T02:15:37.758Z,11.23
2023-05-13T02:18:06.717Z,9.32
2023-05-13T02:20:34.957Z,7.60
2023-05-13T02:23:03.323Z,9.55
2023-05-13T02:25:31.691Z,13.02
2023-05-13T02:28:02.360Z,6.97
2023-05-13T02:30:30.779Z,9.65
2023-05-13T02:32:59.760Z,7.85
2023-05-13T02:35:29.747Z,9.07
2023-05-13T02:37:58.875Z,9.85
2023-05-13T02:40:28.499Z,10.65
2023-05-13T02:42:57.058Z,6.88
2023-05-13T02:45:36.950Z,8.75
2023-05-13T02:48:05.425Z,7.90
2023-05-13T02:50:34.560Z,7.00
2023-05-13T02:53:02.901Z,8.05
2023-05-13T02:55:33.641Z,9.00
2023-05-13T02:58:02.081Z,8.27
2023-05-13T03:00:30.642Z,11.18
2023-05-13T03:03:00.448Z,8.07
2023-05-13T03:05:29.970Z,8.02
2023-05-13T03:07:58.490Z,8.45
2023-05-13T03:10:27.533Z,9.30
2023-05-13T03:12:56.216Z,9.05
2023-05-13T03:15:24.568Z,11.63
2023-05-13T03:17:52.955Z,8.52
2023-05-13T03:20:23.828Z,8.95
2023-05-13T03:22:52.365Z,7.72
2023-05-13T03:25:21.566Z,10.55
2023-05-13T03:27:55.521Z,7.68
2023-05-13T03:30:26.832Z,10.75
2023-05-13T03:33:03.524Z,8.38
2023-05-13T03:35:33.364Z,9.52
2023-05-13T03:38:01.955Z,6.10
2023-05-13T03:40:30.876Z,7.82
2023-05-13T03:42:59.291Z,6.93
2023-05-13T03:45:27.722Z,6.60
2023-05-13T03:47:59.875Z,7.63
2023-05-13T03:50:28.421Z,7.90
2023-05-13T03:52:58.589Z,5.90
2023-05-13T03:55:27.495Z,9.70
2023-05-13T03:57:56.198Z,7.15
2023-05-13T04:00:24.623Z,8.35
2023-05-13T04:02:53.222Z,6.93
2023-05-13T04:05:22.680Z,8.80
2023-05-13T04:07:51.014Z,10.40
2023-05-13T04:10:20.925Z,8.98
2023-05-13T04:12:49.487Z,8.00
2023-05-13T04:15:18.635Z,8.38
2023-05-13T04:17:48.503Z,12.63
2023-05-13T04:20:17.124Z,9.43
2023-05-13T04:22:45.432Z,9.05
2023-05-13T04:25:15.893Z,7.18
2023-05-13T04:27:47.282Z,8.23
2023-05-13T04:30:23.601Z,11.20
2023-05-13T04:32:52.770Z,10.52
2023-05-13T04:35:21.384Z,8.18
2023-05-13T04:37:54.064Z,6.50
2023-05-13T04:40:23.326Z,7.40
2023-05-13T04:42:55.001Z,9.32
2023-05-13T04:45:30.406Z,8.60
2023-05-13T04:47:58.921Z,7.32
2023-05-13T04:50:27.309Z,8.15
2023-05-13T04:52:56.505Z,10.27
2023-05-13T04:55:27.542Z,9.70
2023-05-13T04:57:59.024Z,7.35
2023-05-13T05:00:27.981Z,9.38
2023-05-13T05:02:56.640Z,6.85
2023-05-13T05:05:25.620Z,6.57
2023-05-13T05:07:54.100Z,7.88
2023-05-13T05:10:23.467Z,6.88
2023-05-13T05:12:55.802Z,7.85
2023-05-13T05:15:26.415Z,6.60
2023-05-13T05:17:58.214Z,8.00
2023-05-13T05:20:26.783Z,7.05
2023-05-13T05:22:59.602Z,8.05
2023-05-13T05:25:29.951Z,9.02
2023-05-13T05:27:58.264Z,7.45
2023-05-13T05:30:28.131Z,6.55
2023-05-13T05:33:02.034Z,8.82
2023-05-13T05:35:30.586Z,6.00
2023-05-13T05:37:59.404Z,9.20
2023-05-13T05:40:27.735Z,9.02
2023-05-13T05:42:56.136Z,8.52
2023-05-13T05:45:24.470Z,8.68
2023-05-13T05:47:55.382Z,6.50
2023-05-13T05:50:23.995Z,7.57
2023-05-13T05:52:53.045Z,6.28
2023-05-13T05:55:21.727Z,10.73
2023-05-13T05:57:50.024Z,8.73
2023-05-13T06:00:19.851Z,10.70
2023-05-13T06:02:48.865Z,7.30
2023-05-13T06:05:19.650Z,5.78
2023-05-13T06:07:48.752Z,7.30
2023-05-13T06:10:17.568Z,5.82
2023-05-13T06:12:46.776Z,6.35
2023-05-13T06:15:15.090Z,5.35
2023-05-13T06:17:46.207Z,9.73
2023-05-13T06:20:14.600Z,7.28
2023-05-13T06:22:44.240Z,6.18
2023-05-13T06:25:12.571Z,8.45
2023-05-13T06:27:42.419Z,5.47
2023-05-13T06:30:11.216Z,7.50
2023-05-13T06:32:53.410Z,6.63
2023-05-13T06:35:25.914Z,7.93
2023-05-13T06:37:55.628Z,7.07
2023-05-13T06:40:24.095Z,5.93
2023-05-13T06:42:52.988Z,7.10
2023-05-13T06:45:25.842Z,7.82
2023-05-13T06:47:54.987Z,8.45
2023-05-13T06:50:23.540Z,6.85
2023-05-13T06:52:52.161Z,6.13
2023-05-13T06:55:21.938Z,6.45
2023-05-13T06:57:50.481Z,7.78
2023-05-13T07:00:19.398Z,6.47
2023-05-13T07:02:48.021Z,7.57
2023-05-13T07:05:16.280Z,7.93
2023-05-13T07:07:44.616Z,7.13
2023-05-13T07:10:12.923Z,5.22
2023-05-13T07:12:42.722Z,4.75
2023-05-13T07:15:11.613Z,6.13
2023-05-13T07:17:40.681Z,5.32
2023-05-13T07:20:09.966Z,6.18
2023-05-13T07:22:38.253Z,6.00
2023-05-13T07:25:07.524Z,5.60
2023-05-13T07:27:35.847Z,7.63
2023-05-13T07:30:06.125Z,7.82
2023-05-13T07:32:35.863Z,6.72
2023-05-13T07:35:04.735Z,6.70
2023-05-13T07:37:33.202Z,10.23
2023-05-13T07:40:01.450Z,5.35
2023-05-13T07:42:30.459Z,8.35
2023-05-13T07:44:58.724Z,5.28
2023-05-13T07:47:29.076Z,6.10
2023-05-13T07:49:57.896Z,5.68
2023-05-13T07:52:26.502Z,6.70
2023-05-13T07:54:55.528Z,7.20
2023-05-13T07:57:23.896Z,4.55
2023-05-13T07:59:52.741Z,7.38
2023-05-13T08:02:21.550Z,5.65
2023-05-13T08:04:51.385Z,6.25
2023-05-13T08:07:19.818Z,6.40
2023-05-13T08:09:48.807Z,6.40
2023-05-13T08:12:17.835Z,6.82
2023-05-13T08:14:48.270Z,12.65
2023-05-13T08:17:18.152Z,8.27
2023-05-13T08:19:46.481Z,6.20
2023-05-13T08:22:16.298Z,8.50
2023-05-13T08:24:44.560Z,5.55
2023-05-13T08:27:13.322Z,5.97
2023-05-13T08:29:41.761Z,8.43
2023-05-13T08:32:10.306Z,7.50
2023-05-13T08:34:38.601Z,5.70
2023-05-13T08:37:07.086Z,6.32
2023-05-13T08:39:36.715Z,6.05
2023-05-13T08:42:06.188Z,5.75
2023-05-13T08:44:39.878Z,6.60
2023-05-13T08:47:18.335Z,6.20
2023-05-13T08:49:47.668Z,5.20
2023-05-13T08:52:16.443Z,4.72
2023-05-13T08:54:47.389Z,4.78
2023-05-13T08:57:15.823Z,6.65
2023-05-13T08:59:44.260Z,7.70
2023-05-13T09:02:13.303Z,5.47
2023-05-13T09:04:42.338Z,5.57
2023-05-13T09:07:11.455Z,5.10
2023-05-13T09:09:39.737Z,7.78
2023-05-13T09:12:09.910Z,4.32
2023-05-13T09:14:39.949Z,3.85
2023-05-13T09:17:08.567Z,4.57
2023-05-13T09:19:37.287Z,5.88
2023-05-13T09:22:05.667Z,5.35
2023-05-13T09:24:34.025Z,3.95
2023-05-13T09:27:02.374Z,4.30
2023-05-13T09:29:31.946Z,6.45
2023-05-13T09:32:02.066Z,2.70
2023-05-13T09:34:31.946Z,3.17
2023-05-13T09:37:03.163Z,3.38
2023-05-13T09:39:34.194Z,3.05
2023-05-13T09:42:05.223Z,2.53
2023-05-13T09:44:35.601Z,3.50
2023-05-13T09:47:04.458Z,2.90
2023-05-13T09:49:33.048Z,2.65
2023-05-13T09:52:01.552Z,4.20
2023-05-13T09:54:36.080Z,4.97
2023-05-13T09:57:05.662Z,3.38
2023-05-13T09:59:35.652Z,3.03
2023-05-13T10:02:07.479Z,3.05
2023-05-13T10:04:35.879Z,5.00
2023-05-13T10:07:05.400Z,2.88
2023-05-13T10:09:37.313Z,2.88
2023-05-13T10:12:08.708Z,3.55
2023-05-13T10:14:39.385Z,3.85
2023-05-13T10:17:10.022Z,3.97
2023-05-13T10:19:38.855Z,3.83
2023-05-13T10:22:08.042Z,3.97
2023-05-13T10:24:38.771Z,5.72
2023-05-13T10:27:09.049Z,6.03
2023-05-13T10:29:40.499Z,3.88
2023-05-13T10:32:10.685Z,3.88
2023-05-13T10:34:40.415Z,4.53
2023-05-13T10:37:23.827Z,4.10
2023-05-13T10:40:07.546Z,4.95
2023-05-13T10:42:42.656Z,3.22
2023-05-13T10:45:12.733Z,3.17
2023-05-13T10:47:41.579Z,5.45
2023-05-13T10:50:25.075Z,4.60
2023-05-13T10:52:57.537Z,4.05
2023-05-13T10:55:28.090Z,5.65
2023-05-13T10:58:10.806Z,4.05
2023-05-13T11:00:41.459Z,3.22
2023-05-13T11:03:11.683Z,4.35
2023-05-13T11:05:41.609Z,5.88
2023-05-13T11:08:14.345Z,4.00
2023-05-13T11:11:34.114Z,5.32
2023-05-13T11:14:16.848Z,3.85
2023-05-13T11:19:38.314Z,3.30
2023-05-13T11:22:11.307Z,4.05
2023-05-13T11:24:40.156Z,4.03
2023-05-13T11:27:16.264Z,2.70
2023-05-13T11:29:50.679Z,5.55
2023-05-13T11:32:53.636Z,3.30
2023-05-13T11:35:23.100Z,3.75
2023-05-13T11:37:51.604Z,4.03
2023-05-13T11:40:24.157Z,5.45
2023-05-13T11:42:54.105Z,3.30
2023-05-13T11:45:24.005Z,6.03
2023-05-13T11:47:55.222Z,3.80
2023-05-13T11:50:24.981Z,3.60
2023-05-13T11:52:55.016Z,5.10
2023-05-13T11:55:28.047Z,5.65
2023-05-13T11:57:57.302Z,4.88
2023-05-13T12:00:27.279Z,3.92
2023-05-13T12:02:57.426Z,4.82
2023-05-13T12:05:27.519Z,3.05
2023-05-13T12:07:58.569Z,4.53
2023-05-13T12:10:28.132Z,3.75
2023-05-13T12:12:57.102Z,5.18
2023-05-13T12:15:25.660Z,3.38
2023-05-13T12:17:58.057Z,3.13
2023-05-13T12:20:26.747Z,4.93
2023-05-13T12:22:57.758Z,7.40
2023-05-13T12:25:38.222Z,6.38
2023-05-13T12:28:17.426Z,6.15
2023-05-13T12:30:52.656Z,8.00
2023-05-13T12:33:23.509Z,8.05
2023-05-13T12:35:53.645Z,13.15
2023-05-13T12:38:23.948Z,5.35
2023-05-13T12:40:54.689Z,4.72
2023-05-13T12:43:23.896Z,4.05
2023-05-13T12:45:57.298Z,4.85
2023-05-13T12:48:35.602Z,7.60
2023-05-13T12:51:03.912Z,4.75
2023-05-13T12:53:32.175Z,6.93
2023-05-13T12:56:00.809Z,7.82
2023-05-13T12:58:29.271Z,5.22
2023-05-13T13:00:57.617Z,9.57
2023-05-13T13:03:25.981Z,5.07
2023-05-13T13:05:55.661Z,5.47
2023-05-13T13:08:23.971Z,5.50
2023-05-13T13:10:53.005Z,3.72
2023-05-13T13:13:21.610Z,3.45
2023-05-13T13:15:50.131Z,5.10
2023-05-13T13:18:19.665Z,3.85
2023-05-13T13:20:48.098Z,4.25
2023-05-13T13:23:17.771Z,2.50
2023-05-13T13:25:46.185Z,3.88
2023-05-13T13:28:14.446Z,2.50
2023-05-13T13:30:46.486Z,3.30
2023-05-13T13:33:16.065Z,3.00
2023-05-13T13:35:45.307Z,2.78
2023-05-13T13:38:15.074Z,5.55
2023-05-13T13:40:44.718Z,2.92
2023-05-13T13:43:13.029Z,2.95
2023-05-13T13:45:41.380Z,3.58
2023-05-13T13:48:09.892Z,4.18
2023-05-13T13:53:40.467Z,2.78
2023-05-13T13:56:10.414Z,5.22
2023-05-13T13:58:40.454Z,2.97
2023-05-13T14:01:08.903Z,2.80
2023-05-13T14:03:37.699Z,2.35
2023-05-13T14:06:06.787Z,2.95
2023-05-13T14:08:35.103Z,4.00
2023-05-13T14:11:03.551Z,4.30
2023-05-13T14:13:33.374Z,3.10
2023-05-13T14:16:04.394Z,4.50
2023-05-13T14:18:32.966Z,3.33
2023-05-13T14:21:01.248Z,4.82
2023-05-13T14:23:29.754Z,4.50
2023-05-13T14:25:58.064Z,3.83
2023-05-13T14:28:26.525Z,4.18
2023-05-13T14:30:56.078Z,2.08
2023-05-13T14:33:24.515Z,5.60
2023-05-13T14:35:52.971Z,2.95
2023-05-13T14:38:21.403Z,4.30
2023-05-13T14:40:49.801Z,3.58
2023-05-13T14:43:18.170Z,2.28
2023-05-13T14:45:48.906Z,2.45
2023-05-13T14:48:20.350Z,3.97
2023-05-13T14:50:48.709Z,3.92
2023-05-13T14:53:17.053Z,3.47
2023-05-13T14:55:45.350Z,3.40
2023-05-13T14:58:13.843Z,2.92
2023-05-13T15:00:42.335Z,2.95
2023-05-13T15:03:13.866Z,3.35
2023-05-13T15:05:44.269Z,3.28
2023-05-13T15:08:13.831Z,5.15
2023-05-13T15:10:42.183Z,2.75
2023-05-13T15:13:10.889Z,4.55
2023-05-13T15:15:39.363Z,3.35
2023-05-13T15:18:07.896Z,3.42
2023-05-13T15:20:36.280Z,5.10
2023-05-13T15:23:06.243Z,3.10
2023-05-13T15:25:34.760Z,5.38
2023-05-13T15:28:03.218Z,6.38
2023-05-13T15:30:31.576Z,5.07
2023-05-13T15:33:00.180Z,4.18
2023-05-13T15:35:28.651Z,5.20
2023-05-13T15:37:57.540Z,5.00
2023-05-13T15:40:27.168Z,4.20
2023-05-13T15:42:56.291Z,4.75
2023-05-13T15:45:24.730Z,3.65
2023-05-13T15:47:53.646Z,3.95
2023-05-13T15:50:22.491Z,3.78
2023-05-13T15:52:51.150Z,3.47
2023-05-13T15:55:19.615Z,3.28
2023-05-13T15:57:50.422Z,4.05
2023-05-13T16:00:20.000Z,7.72
2023-05-13T16:02:48.520Z,5.32
2023-05-13T16:05:19.183Z,3.63
2023-05-13T16:07:47.702Z,4.30
2023-05-13T16:10:16.320Z,3.65
2023-05-13T16:12:44.736Z,3.80
2023-05-13T16:15:14.483Z,6.63
2023-05-13T16:17:43.406Z,3.85
2023-05-13T16:20:12.324Z,6.25
2023-05-13T16:22:40.820Z,2.80
2023-05-13T16:25:11.746Z,2.95
2023-05-13T16:27:42.849Z,4.45
2023-05-13T16:30:12.251Z,3.97
2023-05-13T16:32:42.780Z,4.85
2023-05-13T16:35:12.635Z,4.00
2023-05-13T16:37:41.112Z,4.05
2023-05-13T16:40:10.546Z,4.25
2023-05-13T16:42:40.365Z,4.95
2023-05-13T16:45:09.821Z,5.47
2023-05-13T16:47:38.397Z,7.18
2023-05-13T16:50:09.346Z,6.88
2023-05-13T16:52:38.097Z,5.63
2023-05-13T16:55:07.207Z,4.40
2023-05-13T16:57:35.807Z,6.47
2023-05-13T17:00:04.594Z,4.85
2023-05-13T17:02:34.654Z,6.75
2023-05-13T17:05:04.107Z,2.85
2023-05-13T17:07:34.302Z,5.82
2023-05-13T17:10:03.061Z,4.72
2023-05-13T17:12:31.467Z,5.43
2023-05-13T17:14:59.809Z,5.63
2023-05-13T17:17:28.433Z,3.80
2023-05-13T17:19:57.551Z,3.83
2023-05-13T17:22:28.552Z,4.05
2023-05-13T17:24:58.348Z,4.28
2023-05-13T17:27:26.764Z,5.82
2023-05-13T17:29:55.228Z,4.50
2023-05-13T17:32:23.644Z,3.65
2023-05-13T17:34:52.154Z,5.07
2023-05-13T17:37:20.634Z,5.45
2023-05-13T17:39:50.253Z,5.60
2023-05-13T17:42:20.030Z,3.58
2023-05-13T17:44:48.562Z,6.25
2023-05-13T17:47:17.137Z,5.43
2023-05-13T17:49:45.545Z,4.63
2023-05-13T17:52:14.071Z,5.75
2023-05-13T17:54:42.559Z,6.18
2023-05-13T17:57:11.261Z,4.55
2023-05-13T17:59:41.048Z,5.43
2023-05-13T18:02:11.917Z,5.40
2023-05-13T18:04:41.011Z,4.38
2023-05-13T18:07:10.398Z,5.88
2023-05-13T18:09:39.131Z,4.32
2023-05-13T18:12:10.792Z,4.43
2023-05-13T18:14:40.727Z,8.27
2023-05-13T18:17:09.342Z,3.42
2023-05-13T18:19:37.739Z,5.90
2023-05-13T18:22:08.582Z,4.93
2023-05-13T18:24:37.333Z,3.85
2023-05-13T18:27:06.199Z,3.58
2023-05-13T18:29:34.654Z,5.22
2023-05-13T18:32:04.912Z,3.80
2023-05-13T18:34:34.100Z,5.82
2023-05-13T18:37:02.458Z,3.10
2023-05-13T18:39:32.619Z,4.35
2023-05-13T18:42:01.030Z,5.20
2023-05-13T18:44:30.498Z,5.88
2023-05-13T18:46:58.801Z,5.45
2023-05-13T18:49:29.426Z,6.57
2023-05-13T18:51:57.800Z,7.32
2023-05-13T18:54:27.914Z,6.88
2023-05-13T18:56:56.713Z,7.25
2023-05-13T18:59:25.166Z,5.80
2023-05-13T19:01:54.955Z,4.82
2023-05-13T19:04:24.882Z,5.68
2023-05-13T19:06:54.938Z,6.10
2023-05-13T19:09:23.301Z,8.52
2023-05-13T19:11:51.714Z,6.68
2023-05-13T19:14:20.121Z,6.45
2023-05-13T19:16:48.904Z,6.57
2023-05-13T19:19:17.478Z,7.00
2023-05-13T19:21:45.904Z,4.20
2023-05-13T19:24:15.654Z,8.50
2023-05-13T19:26:44.067Z,6.90
2023-05-13T19:29:12.663Z,4.20
2023-05-13T19:31:41.110Z,4.93
2023-05-13T19:34:10.832Z,5.57
2023-05-13T19:36:39.506Z,6.20
2023-05-13T19:39:08.156Z,6.28
2023-05-13T19:41:38.439Z,4.78
2023-05-13T19:44:07.223Z,4.82
2023-05-13T19:46:35.793Z,7.40
2023-05-13T19:49:04.202Z,6.30
2023-05-13T19:51:32.619Z,7.43
2023-05-13T19:54:01.671Z,8.68
2023-05-13T19:56:30.029Z,4.85
2023-05-13T19:59:00.035Z,6.75
2023-05-13T20:01:28.532Z,5.68
2023-05-13T20:03:57.239Z,7.07
2023-05-13T20:06:25.831Z,4.32
2023-05-13T20:08:54.082Z,6.70
2023-05-13T20:11:23.012Z,5.93
2023-05-13T20:13:51.348Z,5.25
2023-05-13T20:16:22.120Z,5.05
2023-05-13T20:18:50.571Z,6.72
2023-05-13T20:21:18.924Z,6.53
2023-05-13T20:23:47.285Z,8.25
2023-05-13T20:26:17.214Z,6.55
2023-05-13T20:28:47.643Z,6.88
2023-05-13T20:31:16.189Z,6.65
2023-05-13T20:33:45.902Z,6.88
2023-05-13T20:36:14.126Z,8.23
2023-05-13T20:38:42.482Z,6.57
2023-05-13T20:41:11.203Z,6.38
2023-05-13T20:43:39.551Z,5.50
2023-05-13T20:46:33.271Z,6.68
2023-05-13T20:49:03.148Z,6.63
2023-05-13T20:51:31.469Z,8.18
2023-05-13T20:53:59.954Z,6.68
2023-05-13T20:56:28.321Z,5.55
2023-05-13T20:58:56.697Z,6.93
2023-05-13T21:01:26.643Z,5.82
2023-05-13T21:03:55.916Z,4.82
2023-05-13T21:06:26.358Z,5.55
2023-05-13T21:08:54.587Z,7.13
2023-05-13T21:11:22.848Z,5.55
2023-05-13T21:13:52.717Z,7.93
2023-05-13T21:16:21.178Z,5.65
2023-05-13T21:18:49.622Z,7.47
2023-05-13T21:21:17.919Z,6.97
2023-05-13T21:23:48.631Z,9.50
2023-05-13T21:26:16.943Z,8.38
2023-05-13T21:28:45.275Z,5.07
2023-05-13T21:31:13.663Z,5.35
2023-05-13T21:33:42.167Z,6.53
2023-05-13T21:36:10.753Z,4.72
2023-05-13T21:38:39.585Z,6.28
2023-05-13T21:41:09.354Z,6.85
2023-05-13T21:43:37.655Z,6.25
2023-05-13T21:46:06.533Z,6.70
2023-05-13T21:48:34.915Z,5.90
2023-05-13T21:51:03.206Z,4.93
2023-05-13T21:53:31.573Z,5.18
2023-05-13T21:56:00.185Z,7.15
2023-05-13T21:58:29.829Z,9.02
2023-05-13T22:00:59.914Z,4.75
2023-05-13T22:03:28.301Z,4.97
2023-05-13T22:05:56.582Z,7.75
2023-05-13T22:08:24.904Z,6.53
2023-05-13T22:10:53.266Z,5.65
2023-05-13T22:13:22.736Z,7.60
2023-05-13T22:15:52.898Z,6.68
2023-05-13T22:18:22.565Z,4.70
2023-05-13T22:20:51.223Z,7.78
2023-05-13T22:23:19.642Z,8.05
2023-05-13T22:25:47.893Z,8.02
2023-05-13T22:28:16.300Z,5.20
2023-05-13T22:30:45.828Z,4.97
2023-05-13T22:33:15.646Z,7.18
2023-05-13T22:35:44.100Z,6.13
2023-05-13T22:38:12.660Z,8.10
2023-05-13T22:40:40.898Z,7.90
2023-05-13T22:43:09.231Z,6.25
2023-05-13T22:45:37.953Z,6.90
2023-05-13T22:48:06.645Z,5.82
2023-05-13T22:50:36.190Z,7.85
2023-05-13T22:53:04.468Z,6.72
2023-05-13T22:55:32.698Z,8.15
2023-05-13T22:58:01.191Z,5.57
2023-05-13T23:00:29.440Z,5.78
2023-05-13T23:02:58.189Z,5.53
2023-05-13T23:05:26.467Z,6.43
2023-05-13T23:07:56.131Z,7.75
2023-05-13T23:10:24.515Z,6.35
2023-05-13T23:12:53.115Z,7.78
2023-05-13T23:15:21.316Z,5.72
2023-05-13T23:17:49.781Z,9.35
2023-05-13T23:20:18.329Z,9.38
2023-05-13T23:22:49.444Z,6.60
2023-05-13T23:25:19.259Z,7.95
2023-05-13T23:27:47.572Z,9.27
2023-05-13T23:30:16.562Z,5.50
2023-05-13T23:32:44.897Z,5.55
2023-05-13T23:35:13.775Z,6.45
2023-05-13T23:37:42.139Z,6.20
2023-05-13T23:40:10.967Z,9.30
2023-05-13T23:42:41.852Z,8.73
2023-05-13T23:45:11.487Z,7.72
2023-05-13T23:47:39.878Z,7.03
2023-05-13T23:50:09.097Z,7.43
2023-05-13T23:52:37.739Z,6.05
2023-05-13T23:55:06.879Z,10.15
2023-05-13T23:57:35.460Z,7.40
